Time;durP1;ratioP1;P1;durP2;ratioP2;P2;SDS_P1;SDS_P2;PMS_P1;PMS_P2;Temp;Humidity;BMP_temperature;BMP_pressure;BME280_temperature;BME280_humidity;BME280_pressure;Samples;Min_cycle;Max_cycle;Signal;HPM_P1;HPM_P2
2024/01/16 00:01:05;;;;;;;;;;;0.80;99.90;;;;;;5073511;28;20065;-71
2024/01/16 00:03:30;;;;;;;;;;;0.80;99.90;;;;;;5074276;28;19924;-71
2024/01/16 00:05:56;;;;;;;;;;;0.80;99.90;;;;;;5073662;28;19920;-71
2024/01/16 00:08:21;;;;;;;;;;;0.80;99.90;;;;;;5073920;28;20283;-71
2024/01/16 00:10:47;;;;;;;;;;;0.90;99.90;;;;;;5074434;28;20367;-71
2024/01/16 00:13:12;;;;;;;;;;;0.90;99.90;;;;;;5074991;28;19920;-71
2024/01/16 00:15:38;;;;;;;;;;;0.90;99.90;;;;;;5072764;28;19920;-71
2024/01/16 00:18:03;;;;;;;;;;;1.00;99.90;;;;;;5074867;28;19990;-72
2024/01/16 00:20:29;;;;;;;;;;;1.10;99.90;;;;;;5073917;28;19963;-72
2024/01/16 00:22:54;;;;;;;;;;;1.20;99.90;;;;;;5073497;28;19920;-72
2024/01/16 00:25:20;;;;;;;;;;;1.20;99.90;;;;;;5075117;28;19925;-72
2024/01/16 00:27:46;;;;;;;;;;;1.20;99.90;;;;;;5074797;28;20318;-72
2024/01/16 00:30:11;;;;;;;;;;;1.20;99.90;;;;;;5073784;28;19924;-71
2024/01/16 00:32:38;;;;;;;;;;;1.10;99.90;;;;;;5075174;28;19931;-71
2024/01/16 00:35:04;;;;;;;;;;;1.10;99.90;;;;;;5074315;28;20318;-71
2024/01/16 00:37:29;;;;;;;;;;;1.10;99.90;;;;;;5072472;28;19977;-71
2024/01/16 00:39:55;;;;;;;;;;;1.00;99.90;;;;;;5075034;28;19920;-71
2024/01/16 00:42:20;;;;;;;;;;;1.00;99.90;;;;;;5073273;28;19920;-71
2024/01/16 00:44:46;;;;;;;;;;;1.00;99.90;;;;;;5073439;28;19921;-72
2024/01/16 00:47:11;;;;;;;;;;;1.00;99.90;;;;;;5074279;28;19928;-71
2024/01/16 00:49:37;;;;;;;;;;;0.90;99.90;;;;;;5074950;28;19943;-71
2024/01/16 00:52:03;;;;;;;;;;;0.90;99.90;;;;;;5073449;28;19974;-71
2024/01/16 00:54:28;;;;;;;;;;;0.90;99.90;;;;;;5073371;28;20299;-71
2024/01/16 00:56:59;;;;;;;;;;;0.90;99.90;;;;;;5074496;28;19927;-71
2024/01/16 00:59:25;;;;;;;;;;;0.90;99.90;;;;;;5073312;28;19921;-71
2024/01/16 01:01:50;;;;;;;;;;;0.90;99.90;;;;;;5073423;28;20383;-71
2024/01/16 01:04:16;;;;;;;;;;;0.90;99.90;;;;;;5072361;28;19920;-71
2024/01/16 01:06:41;;;;;;;;;;;1.00;99.90;;;;;;5074266;28;19935;-71
2024/01/16 01:09:07;;;;;;;;;;;1.00;99.90;;;;;;5073926;28;19990;-72
2024/01/16 01:11:32;;;;;;;;;;;1.00;99.90;;;;;;5072433;28;20330;-72
2024/01/16 01:13:59;;;;;;;;;;;1.70;99.90;;;;;;5073726;28;19944;-71
2024/01/16 01:16:24;;;;;;;;;;;1.80;99.90;;;;;;5073843;28;20279;-71
2024/01/16 01:18:50;;;;;;;;;;;1.10;99.90;;;;;;5071993;28;19925;-71
2024/01/16 01:21:15;;;;;;;;;;;1.40;99.90;;;;;;5073616;28;19924;-71
2024/01/16 01:23:41;;;;;;;;;;;1.10;99.90;;;;;;5072993;28;19943;-71
2024/01/16 01:26:06;;;;;;;;;;;1.30;99.90;;;;;;5073074;28;19916;-72
2024/01/16 01:28:32;;;;;;;;;;;1.40;99.90;;;;;;5072099;28;19929;-72
2024/01/16 01:30:57;;;;;;;;;;;1.40;99.90;;;;;;5072690;28;19927;-71
2024/01/16 01:33:23;;;;;;;;;;;1.40;99.90;;;;;;5071516;28;19999;-72
2024/01/16 01:35:48;;;;;;;;;;;1.40;99.90;;;;;;5073906;28;19966;-71
2024/01/16 01:38:14;;;;;;;;;;;1.40;99.90;;;;;;5071884;28;19920;-71
2024/01/16 01:40:40;;;;;;;;;;;1.30;99.90;;;;;;5071448;28;19931;-72
2024/01/16 01:43:21;;;;;;;;;;;1.20;99.90;;;;;;5071590;28;20299;-71
2024/01/16 01:45:52;;;;;;;;;;;1.10;99.90;;;;;;5073821;28;19965;-71
2024/01/16 01:48:18;;;;;;;;;;;1.10;99.90;;;;;;5071672;28;19920;-71
2024/01/16 01:50:43;;;;;;;;;;;1.00;99.90;;;;;;5073410;28;19927;-71
2024/01/16 01:53:09;;;;;;;;;;;0.90;99.90;;;;;;5073071;28;19920;-71
2024/01/16 01:55:34;;;;;;;;;;;0.90;99.90;;;;;;5072504;28;19927;-71
2024/01/16 01:58:02;;;;;;;;;;;0.80;99.90;;;;;;5071880;28;20317;-72
2024/01/16 02:00:27;;;;;;;;;;;0.90;99.90;;;;;;5071343;28;19926;-71
2024/01/16 02:02:53;;;;;;;;;;;0.90;99.90;;;;;;5073614;28;20349;-71
2024/01/16 02:05:19;;;;;;;;;;;0.90;99.90;;;;;;5073038;28;20003;-71
2024/01/16 02:07:45;;;;;;;;;;;0.80;99.90;;;;;;5072333;28;19928;-72
2024/01/16 02:10:10;;;;;;;;;;;0.90;99.90;;;;;;5070749;28;20031;-71
2024/01/16 02:12:36;;;;;;;;;;;0.90;99.90;;;;;;5072889;28;19943;-71
2024/01/16 02:15:03;;;;;;;;;;;1.60;99.90;;;;;;5072214;28;20385;-72
2024/01/16 02:17:28;;;;;;;;;;;1.00;99.90;;;;;;5073233;28;19924;-71
2024/01/16 02:19:53;;;;;;;;;;;1.00;99.90;;;;;;5073070;28;19927;-71
2024/01/16 02:22:21;;;;;;;;;;;1.00;99.90;;;;;;5072018;28;19924;-71
2024/01/16 02:24:47;;;;;;;;;;;0.90;99.90;;;;;;5072471;28;20297;-71
2024/01/16 02:27:13;;;;;;;;;;;1.30;99.90;;;;;;5072370;28;20389;-71
2024/01/16 02:29:42;;;;;;;;;;;0.90;99.90;;;;;;5072384;28;19947;-71
2024/01/16 02:32:10;;;;;;;;;;;0.90;99.90;;;;;;5072882;28;19927;-71
2024/01/16 02:34:35;;;;;;;;;;;0.90;99.90;;;;;;5071672;28;20020;-71
2024/01/16 02:37:01;;;;;;;;;;;0.90;99.90;;;;;;5070433;28;20027;-71
2024/01/16 02:39:26;;;;;;;;;;;0.90;99.90;;;;;;5071261;28;19920;-71
2024/01/16 02:41:52;;;;;;;;;;;0.80;99.90;;;;;;5073041;28;19920;-71
2024/01/16 02:44:17;;;;;;;;;;;0.90;99.90;;;;;;5071945;28;19920;-71
2024/01/16 02:46:43;;;;;;;;;;;0.80;99.90;;;;;;5072875;28;20460;-71
2024/01/16 02:49:08;;;;;;;;;;;0.80;99.90;;;;;;5071038;28;19925;-71
2024/01/16 02:51:34;;;;;;;;;;;0.80;99.90;;;;;;5070570;28;19920;-71
2024/01/16 02:53:59;;;;;;;;;;;0.60;99.90;;;;;;5072123;28;19925;-71
2024/01/16 02:56:25;;;;;;;;;;;0.80;99.90;;;;;;5072632;28;19963;-71
2024/01/16 02:58:50;;;;;;;;;;;0.80;99.90;;;;;;5072821;28;19927;-71
2024/01/16 03:01:16;;;;;;;;;;;0.80;99.90;;;;;;5076333;28;19928;-71
2024/01/16 03:03:41;;;;;;;;;;;0.80;99.90;;;;;;5075733;28;19921;-71
2024/01/16 03:06:07;;;;;;;;;;;0.70;99.90;;;;;;5076267;28;19920;-71
2024/01/16 03:08:32;;;;;;;;;;;0.80;99.90;;;;;;5075072;28;19920;-71
2024/01/16 03:10:58;;;;;;;;;;;0.80;99.90;;;;;;5074563;28;20433;-71
2024/01/16 03:13:23;;;;;;;;;;;1.00;99.90;;;;;;5076593;28;19969;-71
2024/01/16 03:15:49;;;;;;;;;;;0.80;99.90;;;;;;5075438;28;19927;-71
2024/01/16 03:18:14;;;;;;;;;;;0.80;99.90;;;;;;5075157;28;19966;-71
2024/01/16 03:20:40;;;;;;;;;;;0.80;99.90;;;;;;5076082;28;19928;-71
2024/01/16 03:23:05;;;;;;;;;;;0.90;99.90;;;;;;5075419;28;19924;-71
2024/01/16 03:25:31;;;;;;;;;;;0.70;99.90;;;;;;5075363;28;19965;-71
2024/01/16 03:27:56;;;;;;;;;;;0.70;99.90;;;;;;5076328;28;20424;-71
2024/01/16 03:30:22;;;;;;;;;;;0.70;99.90;;;;;;5076114;28;19920;-71
2024/01/16 03:32:47;;;;;;;;;;;0.70;99.90;;;;;;5075459;28;19970;-71
2024/01/16 03:35:13;;;;;;;;;;;0.70;99.90;;;;;;5075326;28;20318;-71
2024/01/16 03:37:39;;;;;;;;;;;0.70;99.90;;;;;;5075903;28;19920;-71
2024/01/16 03:40:05;;;;;;;;;;;0.70;99.90;;;;;;5074912;28;19963;-71
2024/01/16 03:42:30;;;;;;;;;;;0.70;99.90;;;;;;5076188;28;20376;-72
2024/01/16 03:44:56;;;;;;;;;;;0.70;99.90;;;;;;5076124;28;19924;-71
2024/01/16 03:47:23;;;;;;;;;;;1.70;99.90;;;;;;5074867;28;20343;-71
2024/01/16 03:49:48;;;;;;;;;;;0.80;99.90;;;;;;5075088;28;19920;-71
2024/01/16 03:52:14;;;;;;;;;;;0.80;99.90;;;;;;5074706;28;19928;-72
2024/01/16 03:54:39;;;;;;;;;;;0.90;99.90;;;;;;5075018;28;19938;-71
2024/01/16 03:57:05;;;;;;;;;;;0.90;99.90;;;;;;5074738;28;19927;-72
2024/01/16 03:59:31;;;;;;;;;;;1.00;99.90;;;;;;5075442;28;20255;-72
2024/01/16 04:01:56;;;;;;;;;;;1.00;99.90;;;;;;5073357;28;19927;-71
2024/01/16 04:04:22;;;;;;;;;;;1.10;99.90;;;;;;5073861;28;19917;-72
2024/01/16 04:06:48;;;;;;;;;;;1.10;99.90;;;;;;5075081;28;19920;-71
2024/01/16 04:09:14;;;;;;;;;;;1.10;99.90;;;;;;5074434;28;19969;-71
2024/01/16 04:11:40;;;;;;;;;;;1.10;99.90;;;;;;5075053;28;19963;-72
2024/01/16 04:14:06;;;;;;;;;;;1.10;99.90;;;;;;5073736;28;20036;-71
2024/01/16 04:16:31;;;;;;;;;;;1.20;99.90;;;;;;5075391;28;19921;-71
2024/01/16 04:18:57;;;;;;;;;;;1.20;99.90;;;;;;5075121;28;20326;-71
2024/01/16 04:21:22;;;;;;;;;;;1.20;99.90;;;;;;5073899;28;19925;-71
2024/01/16 04:23:48;;;;;;;;;;;1.20;99.90;;;;;;5075225;28;19924;-71
2024/01/16 04:26:13;;;;;;;;;;;1.20;99.90;;;;;;5074975;28;19920;-71
2024/01/16 04:28:39;;;;;;;;;;;1.10;99.90;;;;;;5073987;28;19974;-71
2024/01/16 04:31:05;;;;;;;;;;;1.10;99.90;;;;;;5074822;28;20007;-72
2024/01/16 04:33:30;;;;;;;;;;;1.10;99.90;;;;;;5075022;28;19927;-71
2024/01/16 04:35:56;;;;;;;;;;;1.10;99.90;;;;;;5072982;28;19989;-71
2024/01/16 04:38:21;;;;;;;;;;;1.00;99.90;;;;;;5074286;28;19920;-71
2024/01/16 04:40:47;;;;;;;;;;;1.10;99.90;;;;;;5074909;28;20332;-71
2024/01/16 04:43:12;;;;;;;;;;;1.00;99.90;;;;;;5072145;28;19920;-71
2024/01/16 04:45:38;;;;;;;;;;;1.00;99.90;;;;;;5073753;28;19925;-72
2024/01/16 04:48:04;;;;;;;;;;;1.00;99.90;;;;;;5074143;28;19935;-71
2024/01/16 04:50:31;;;;;;;;;;;0.90;99.90;;;;;;5072400;28;19942;-71
2024/01/16 04:52:59;;;;;;;;;;;1.00;99.90;;;;;;5074749;28;20708;-72
2024/01/16 04:55:26;;;;;;;;;;;1.10;99.90;;;;;;5074451;28;19923;-72
2024/01/16 04:57:51;;;;;;;;;;;1.00;99.90;;;;;;5072672;28;20275;-72
2024/01/16 05:00:17;;;;;;;;;;;1.00;99.90;;;;;;5074213;28;19920;-72
2024/01/16 05:02:42;;;;;;;;;;;1.10;99.90;;;;;;5073142;28;19973;-72
2024/01/16 05:05:08;;;;;;;;;;;1.10;99.90;;;;;;5073233;28;19920;-72
2024/01/16 05:07:35;;;;;;;;;;;1.20;99.90;;;;;;5072797;28;19969;-72
2024/01/16 05:10:01;;;;;;;;;;;1.20;99.90;;;;;;5073630;28;19928;-72
2024/01/16 05:12:26;;;;;;;;;;;1.30;99.90;;;;;;5072309;28;19927;-72
2024/01/16 05:14:52;;;;;;;;;;;1.30;99.90;;;;;;5074482;28;20272;-70
2024/01/16 05:17:17;;;;;;;;;;;1.30;99.90;;;;;;5072665;28;20458;-73
2024/01/16 05:19:43;;;;;;;;;;;1.30;99.90;;;;;;5072126;28;19924;-71
2024/01/16 05:22:10;;;;;;;;;;;1.30;99.90;;;;;;5072758;28;19924;-70
2024/01/16 05:24:35;;;;;;;;;;;1.30;99.90;;;;;;5073120;28;19927;-71
2024/01/16 05:27:01;;;;;;;;;;;1.40;99.90;;;;;;5073531;28;19921;-71
2024/01/16 05:29:26;;;;;;;;;;;1.40;99.90;;;;;;5074094;28;19943;-70
2024/01/16 05:31:52;;;;;;;;;;;1.40;99.90;;;;;;5073143;28;20394;-70
2024/01/16 05:34:18;;;;;;;;;;;1.30;99.90;;;;;;5072140;28;20374;-70
2024/01/16 05:36:44;;;;;;;;;;;1.30;99.90;;;;;;5073735;28;20072;-70
2024/01/16 05:39:10;;;;;;;;;;;1.30;99.90;;;;;;5072630;28;19927;-71
2024/01/16 05:41:35;;;;;;;;;;;1.30;99.90;;;;;;5073808;28;19916;-70
2024/01/16 05:44:09;;;;;;;;;;;1.20;99.90;;;;;;5110588;27;19916;-70
2024/01/16 05:46:34;;;;;;;;;;;1.20;99.90;;;;;;5110098;28;19924;-68
2024/01/16 05:49:00;;;;;;;;;;;1.20;99.90;;;;;;5105412;28;19960;-68
2024/01/16 05:51:29;;;;;;;;;;;1.20;99.90;;;;;;5090279;28;19950;-71
2024/01/16 05:53:54;;;;;;;;;;;1.10;99.90;;;;;;5089671;28;19920;-70
2024/01/16 05:56:20;;;;;;;;;;;1.10;99.90;;;;;;5122683;28;19928;-71
2024/01/16 05:58:46;;;;;;;;;;;1.20;99.90;;;;;;5090235;28;20351;-74
2024/01/16 06:01:15;;;;;;;;;;;1.20;99.90;;;;;;5087918;28;20394;-70
2024/01/16 06:03:41;;;;;;;;;;;1.20;99.90;;;;;;5090459;28;19928;-70
2024/01/16 06:06:09;;;;;;;;;;;1.20;99.90;;;;;;5088072;28;19924;-70
2024/01/16 06:08:35;;;;;;;;;;;2.80;99.90;;;;;;5087698;28;19924;-70
2024/01/16 06:11:00;;;;;;;;;;;1.20;99.90;;;;;;5088402;28;19931;-70
2024/01/16 06:13:26;;;;;;;;;;;1.20;99.90;;;;;;5088942;28;19931;-71
2024/01/16 06:15:51;;;;;;;;;;;1.20;99.90;;;;;;5108529;28;20394;-70
2024/01/16 06:18:17;;;;;;;;;;;1.20;99.90;;;;;;5109760;28;19924;-72
2024/01/16 06:20:42;;;;;;;;;;;1.20;99.90;;;;;;5107376;28;20443;-70
2024/01/16 06:23:08;;;;;;;;;;;1.20;99.90;;;;;;5099256;28;20021;-76
2024/01/16 06:25:34;;;;;;;;;;;1.20;99.90;;;;;;5087411;28;20379;-74
2024/01/16 06:27:59;;;;;;;;;;;1.20;99.90;;;;;;5087225;28;20687;-74
2024/01/16 06:30:25;;;;;;;;;;;1.20;99.90;;;;;;5087655;28;20360;-75
2024/01/16 06:32:50;;;;;;;;;;;1.20;99.90;;;;;;5097448;28;19924;-72
2024/01/16 06:35:16;;;;;;;;;;;1.20;99.90;;;;;;5096662;28;19924;-77
2024/01/16 06:37:42;;;;;;;;;;;1.50;99.90;;;;;;5089214;28;20349;-83
2024/01/16 06:40:08;;;;;;;;;;;1.20;99.90;;;;;;5089049;28;20007;-79
2024/01/16 06:42:33;;;;;;;;;;;2.10;99.90;;;;;;5087061;28;19954;-73
2024/01/16 06:44:59;;;;;;;;;;;1.10;99.90;;;;;;5088491;28;19924;-73
2024/01/16 06:47:25;;;;;;;;;;;1.10;99.90;;;;;;5085596;28;19925;-73
2024/01/16 06:49:50;;;;;;;;;;;1.10;99.90;;;;;;5087297;28;20027;-73
2024/01/16 06:52:16;;;;;;;;;;;1.00;99.90;;;;;;5088837;28;19924;-73
2024/01/16 06:54:41;;;;;;;;;;;1.90;99.90;;;;;;5099579;28;19993;-73
2024/01/16 06:57:06;;;;;;;;;;;1.00;99.90;;;;;;5093675;28;20022;-73
2024/01/16 06:59:32;;;;;;;;;;;1.00;99.90;;;;;;5094822;28;19924;-73
2024/01/16 07:01:58;;;;;;;;;;;1.00;99.90;;;;;;5095134;28;19924;-73
2024/01/16 07:04:23;;;;;;;;;;;1.00;99.90;;;;;;5091524;28;20415;-73
2024/01/16 07:06:49;;;;;;;;;;;1.00;99.90;;;;;;5092588;28;19931;-73
2024/01/16 07:09:16;;;;;;;;;;;1.00;99.90;;;;;;5090396;28;19953;-73
2024/01/16 07:11:42;;;;;;;;;;;0.90;99.90;;;;;;5086750;28;20065;-73
2024/01/16 07:14:08;;;;;;;;;;;0.90;99.90;;;;;;5072127;28;19940;-73
2024/01/16 07:16:34;;;;;;;;;;;0.80;99.90;;;;;;5072534;28;19929;-73
2024/01/16 07:19:00;;;;;;;;;;;0.80;99.90;;;;;;5072948;28;20399;-73
2024/01/16 07:21:25;;;;;;;;;;;0.80;99.90;;;;;;5074141;28;20011;-72
2024/01/16 07:23:51;;;;;;;;;;;0.90;99.90;;;;;;5073868;28;19924;-73
2024/01/16 07:26:16;;;;;;;;;;;0.90;99.90;;;;;;5090623;28;20035;-73
2024/01/16 07:28:42;;;;;;;;;;;0.90;99.90;;;;;;5093691;28;20359;-73
2024/01/16 07:31:09;;;;;;;;;;;0.80;99.90;;;;;;5093137;28;19924;-73
2024/01/16 07:33:35;;;;;;;;;;;0.90;99.90;;;;;;5095399;28;19924;-73
2024/01/16 07:36:00;;;;;;;;;;;0.90;99.90;;;;;;5093560;28;20014;-73
2024/01/16 07:38:26;;;;;;;;;;;0.80;99.90;;;;;;5083178;28;19929;-73
2024/01/16 07:40:51;;;;;;;;;;;0.80;99.90;;;;;;5073906;28;20360;-73
2024/01/16 07:43:17;;;;;;;;;;;1.10;99.90;;;;;;5072670;28;19931;-73
2024/01/16 07:45:42;;;;;;;;;;;0.80;99.90;;;;;;5074145;28;19977;-73
2024/01/16 07:48:08;;;;;;;;;;;0.80;99.90;;;;;;5074105;28;19928;-73
2024/01/16 07:50:33;;;;;;;;;;;0.90;99.90;;;;;;5074153;28;19924;-73
2024/01/16 07:52:59;;;;;;;;;;;1.00;99.90;;;;;;5071878;28;19932;-74
2024/01/16 07:55:25;;;;;;;;;;;1.00;99.90;;;;;;5074430;28;19932;-73
2024/01/16 07:57:50;;;;;;;;;;;1.00;99.90;;;;;;5073579;28;19932;-74
2024/01/16 08:00:16;;;;;;;;;;;0.90;99.90;;;;;;5072320;28;20433;-75
2024/01/16 08:02:41;;;;;;;;;;;0.90;99.90;;;;;;5080310;28;19924;-74
2024/01/16 08:05:07;;;;;;;;;;;1.00;99.90;;;;;;5076735;28;19977;-74
2024/01/16 08:07:34;;;;;;;;;;;1.00;99.90;;;;;;5074637;28;19921;-74
2024/01/16 08:10:00;;;;;;;;;;;1.00;99.90;;;;;;5087162;28;19924;-74
2024/01/16 08:12:25;;;;;;;;;;;1.00;99.90;;;;;;5085710;28;19935;-75
2024/01/16 08:14:52;;;;;;;;;;;1.10;99.90;;;;;;5092089;28;20010;-75
2024/01/16 08:17:17;;;;;;;;;;;1.10;99.90;;;;;;5072692;28;19929;-74
2024/01/16 08:19:43;;;;;;;;;;;1.20;99.90;;;;;;5072665;28;19978;-73
2024/01/16 08:22:08;;;;;;;;;;;1.20;99.90;;;;;;5071635;28;19924;-73
2024/01/16 08:24:34;;;;;;;;;;;1.20;99.90;;;;;;5072943;28;19924;-73
2024/01/16 08:26:59;;;;;;;;;;;1.30;99.90;;;;;;5072233;28;19927;-75
2024/01/16 08:29:25;;;;;;;;;;;1.20;99.90;;;;;;5091468;28;19970;-73
2024/01/16 08:31:53;;;;;;;;;;;1.10;99.90;;;;;;5093100;28;19939;-73
2024/01/16 08:34:19;;;;;;;;;;;1.10;99.90;;;;;;5091965;28;19989;-73
2024/01/16 08:36:46;;;;;;;;;;;1.10;99.90;;;;;;5092905;28;20359;-75
2024/01/16 08:39:11;;;;;;;;;;;1.20;99.90;;;;;;5091871;28;19931;-75
2024/01/16 08:41:37;;;;;;;;;;;1.10;99.90;;;;;;5091916;28;20635;-75
2024/01/16 08:44:02;;;;;;;;;;;1.10;99.90;;;;;;5112986;28;20375;-74
2024/01/16 08:46:28;;;;;;;;;;;1.10;99.90;;;;;;5114452;28;20370;-74
2024/01/16 08:48:54;;;;;;;;;;;1.20;99.90;;;;;;5113252;28;19923;-73
2024/01/16 08:51:19;;;;;;;;;;;1.20;99.90;;;;;;5095974;28;20329;-74
2024/01/16 08:53:45;;;;;;;;;;;1.20;99.90;;;;;;5096076;28;19930;-75
2024/01/16 08:56:12;;;;;;;;;;;1.30;99.90;;;;;;5094502;28;19961;-74
2024/01/16 08:58:40;;;;;;;;;;;1.40;99.90;;;;;;5095468;28;19931;-74
2024/01/16 09:01:06;;;;;;;;;;;1.50;99.90;;;;;;5095235;28;19923;-75
2024/01/16 09:03:32;;;;;;;;;;;3.10;99.90;;;;;;5094719;28;19924;-74
2024/01/16 09:05:58;;;;;;;;;;;1.50;99.90;;;;;;5075753;28;20329;-74
2024/01/16 09:08:23;;;;;;;;;;;1.90;99.90;;;;;;5074888;28;19924;-75
2024/01/16 09:10:49;;;;;;;;;;;1.50;99.90;;;;;;5074241;28;20015;-76
2024/01/16 09:13:15;;;;;;;;;;;1.40;99.90;;;;;;5087586;28;19931;-74
2024/01/16 09:15:40;;;;;;;;;;;1.30;99.90;;;;;;5078772;28;20287;-73
2024/01/16 09:18:06;;;;;;;;;;;1.30;99.90;;;;;;5082934;28;19931;-74
2024/01/16 09:20:31;;;;;;;;;;;1.30;99.90;;;;;;5093671;28;19968;-72
2024/01/16 09:23:03;;;;;;;;;;;1.30;99.90;;;;;;5086310;28;19935;-75
2024/01/16 09:25:29;;;;;;;;;;;1.30;99.90;;;;;;5079945;28;19923;-75
2024/01/16 09:27:55;;;;;;;;;;;1.20;99.90;;;;;;5090494;28;19924;-76
2024/01/16 09:30:22;;;;;;;;;;;1.20;99.90;;;;;;5090016;28;19958;-79
2024/01/16 09:32:48;;;;;;;;;;;1.30;99.90;;;;;;5079105;28;19931;-82
2024/01/16 09:35:14;;;;;;;;;;;1.30;99.90;;;;;;5090183;28;19923;-73
2024/01/16 09:37:39;;;;;;;;;;;1.40;99.90;;;;;;5108839;28;19970;-77
2024/01/16 09:40:06;;;;;;;;;;;1.50;99.90;;;;;;5076810;28;19924;-80
2024/01/16 09:42:31;;;;;;;;;;;1.50;99.90;;;;;;5088374;28;20345;-78
2024/01/16 09:44:57;;;;;;;;;;;1.70;99.90;;;;;;5075947;28;19928;-72
2024/01/16 09:47:24;;;;;;;;;;;1.80;99.90;;;;;;5110221;28;19924;-73
2024/01/16 09:49:49;;;;;;;;;;;1.90;99.90;;;;;;5069895;28;19967;-72
2024/01/16 09:52:15;;;;;;;;;;;2.10;99.90;;;;;;5075527;28;19924;-72
2024/01/16 09:54:40;;;;;;;;;;;2.20;99.90;;;;;;5083821;28;19924;-72
2024/01/16 09:57:06;;;;;;;;;;;3.30;99.90;;;;;;5082594;28;19923;-71
2024/01/16 09:59:32;;;;;;;;;;;2.20;99.90;;;;;;5100605;28;19924;-72
2024/01/16 10:02:00;;;;;;;;;;;2.30;99.90;;;;;;5073829;28;20383;-71
2024/01/16 10:04:27;;;;;;;;;;;2.90;99.90;;;;;;5074533;28;19924;-71
2024/01/16 10:06:53;;;;;;;;;;;2.50;99.90;;;;;;5091372;28;19928;-71
2024/01/16 10:09:18;;;;;;;;;;;2.30;99.90;;;;;;5091808;28;19935;-71
2024/01/16 10:11:45;;;;;;;;;;;2.30;99.90;;;;;;5073474;28;19928;-71
2024/01/16 10:14:11;;;;;;;;;;;2.40;99.90;;;;;;5091161;28;19973;-70
2024/01/16 10:16:55;;;;;;;;;;;2.40;99.90;;;;;;5092086;28;20287;-72
2024/01/16 10:19:21;;;;;;;;;;;2.30;99.90;;;;;;5092724;28;19981;-72
2024/01/16 10:21:46;;;;;;;;;;;2.40;99.90;;;;;;5097672;28;20028;-72
2024/01/16 10:24:13;;;;;;;;;;;2.50;99.90;;;;;;5073455;28;20398;-72
2024/01/16 10:26:38;;;;;;;;;;;2.50;99.90;;;;;;5073815;28;20299;-72
2024/01/16 10:29:08;;;;;;;;;;;2.60;99.90;;;;;;5107389;28;19924;-72
2024/01/16 10:31:33;;;;;;;;;;;2.50;99.90;;;;;;5078622;28;19958;-73
2024/01/16 10:33:59;;;;;;;;;;;2.60;99.90;;;;;;5124889;27;20026;-72
2024/01/16 10:36:25;;;;;;;;;;;2.70;99.90;;;;;;5114928;28;19924;-75
2024/01/16 10:38:57;;;;;;;;;;;4.00;99.90;;;;;;5077693;28;20020;-71
2024/01/16 10:41:26;;;;;;;;;;;3.20;99.90;;;;;;5076712;28;19924;-72
2024/01/16 10:44:10;;;;;;;;;;;2.80;99.90;;;;;;5077874;28;20011;-72
2024/01/16 10:46:36;;;;;;;;;;;2.80;99.90;;;;;;5095824;28;19950;-71
2024/01/16 10:49:03;;;;;;;;;;;2.70;99.90;;;;;;5093952;28;20031;-71
2024/01/16 10:51:29;;;;;;;;;;;2.50;99.90;;;;;;5109576;28;19931;-72
2024/01/16 10:53:59;;;;;;;;;;;2.40;99.90;;;;;;5114783;28;19923;-71
2024/01/16 10:56:27;;;;;;;;;;;2.20;99.90;;;;;;5095657;28;20371;-72
2024/01/16 10:59:06;;;;;;;;;;;2.30;99.90;;;;;;5096325;28;19924;-71
2024/01/16 11:01:32;;;;;;;;;;;2.00;99.90;;;;;;5115110;28;19924;-71
2024/01/16 11:03:59;;;;;;;;;;;2.10;99.90;;;;;;5084359;28;19935;-71
2024/01/16 11:06:25;;;;;;;;;;;1.80;99.90;;;;;;5077850;28;19927;-71
2024/01/16 11:08:51;;;;;;;;;;;1.80;99.90;;;;;;5077386;28;19949;-71
2024/01/16 11:11:17;;;;;;;;;;;1.80;99.90;;;;;;5094564;28;19924;-71
2024/01/16 11:13:44;;;;;;;;;;;1.70;99.90;;;;;;5095738;28;20332;-72
2024/01/16 11:16:12;;;;;;;;;;;1.70;99.90;;;;;;5094597;28;19931;-72
2024/01/16 11:18:38;;;;;;;;;;;1.70;99.90;;;;;;5100999;28;19938;-69
2024/01/16 11:21:05;;;;;;;;;;;1.70;99.90;;;;;;5111070;28;19920;-69
2024/01/16 11:23:31;;;;;;;;;;;1.80;99.90;;;;;;5115017;28;19928;-69
2024/01/16 11:25:57;;;;;;;;;;;1.90;99.90;;;;;;5097808;28;20442;-69
2024/01/16 11:28:26;;;;;;;;;;;2.10;99.90;;;;;;5115351;28;19923;-69
2024/01/16 11:30:52;;;;;;;;;;;2.50;99.90;;;;;;5096776;28;19930;-70
2024/01/16 11:33:33;;;;;;;;;;;3.10;99.90;;;;;;5096628;28;20358;-70
2024/01/16 11:35:59;;;;;;;;;;;3.30;99.90;;;;;;5097337;28;20018;-70
2024/01/16 11:38:26;;;;;;;;;;;3.60;99.90;;;;;;5114713;28;19977;-70
2024/01/16 11:40:56;;;;;;;;;;;4.50;99.90;;;;;;5097393;28;19923;-71
2024/01/16 11:43:34;;;;;;;;;;;5.90;99.90;;;;;;5096106;28;19923;-71
2024/01/16 11:45:59;;;;;;;;;;;7.50;99.90;;;;;;5078589;28;19924;-71
2024/01/16 11:48:25;;;;;;;;;;;8.90;99.90;;;;;;5094793;28;19924;-71
2024/01/16 11:50:51;;;;;;;;;;;10.10;99.90;;;;;;5077040;28;19950;-70
2024/01/16 11:53:40;;;;;;;;;;;11.30;99.90;;;;;;5095371;28;19923;-71
2024/01/16 11:56:24;;;;;;;;;;;12.20;99.90;;;;;;5105242;28;20007;-71
2024/01/16 11:58:52;;;;;;;;;;;11.70;99.90;;;;;;5114251;28;19931;-70
2024/01/16 12:01:19;;;;;;;;;;;11.70;99.90;;;;;;5115042;28;20423;-70
2024/01/16 12:03:45;;;;;;;;;;;11.80;99.90;;;;;;5096891;28;20026;-70
2024/01/16 12:06:10;;;;;;;;;;;12.20;99.90;;;;;;5113877;28;20022;-70
2024/01/16 12:08:39;;;;;;;;;;;12.40;99.40;;;;;;5089760;28;19924;-70
2024/01/16 12:11:04;;;;;;;;;;;12.70;99.80;;;;;;5094426;28;19924;-70
2024/01/16 12:13:30;;;;;;;;;;;11.70;99.90;;;;;;5075380;28;20409;-70
2024/01/16 12:15:59;;;;;;;;;;;11.70;99.90;;;;;;5076603;28;20006;-74
2024/01/16 12:18:25;;;;;;;;;;;12.50;99.80;;;;;;5076423;28;19924;-70
2024/01/16 12:20:51;;;;;;;;;;;11.50;99.90;;;;;;5094793;28;20416;-74
2024/01/16 12:23:17;;;;;;;;;;;11.70;99.70;;;;;;5086408;28;19931;-74
2024/01/16 12:25:43;;;;;;;;;;;11.20;99.20;;;;;;5095106;28;19933;-73
2024/01/16 12:28:11;;;;;;;;;;;9.80;99.90;;;;;;5113392;28;20046;-72
2024/01/16 12:30:37;;;;;;;;;;;9.60;99.90;;;;;;5114766;28;19931;-71
2024/01/16 12:33:09;;;;;;;;;;;10.30;99.90;;;;;;5114237;28;20008;-75
2024/01/16 12:35:35;;;;;;;;;;;10.80;99.90;;;;;;5114003;28;20018;-73
2024/01/16 12:38:01;;;;;;;;;;;11.30;99.90;;;;;;5082144;28;19935;-74
2024/01/16 12:40:27;;;;;;;;;;;11.70;99.90;;;;;;5075403;28;20298;-72
2024/01/16 12:42:53;;;;;;;;;;;12.20;99.20;;;;;;5075425;28;19924;-74
2024/01/16 12:45:19;;;;;;;;;;;12.10;99.90;;;;;;5095747;28;19928;-75
2024/01/16 12:47:50;;;;;;;;;;;12.00;99.20;;;;;;5090227;28;20409;-72
2024/01/16 12:50:22;;;;;;;;;;;11.00;99.50;;;;;;5097452;28;20397;-70
2024/01/16 12:53:00;;;;;;;;;;;10.50;99.30;;;;;;5093302;28;19966;-70
2024/01/16 12:55:25;;;;;;;;;;;10.70;99.90;;;;;;5113800;28;19924;-72
2024/01/16 12:58:11;;;;;;;;;;;10.70;99.90;;;;;;5096019;28;19930;-73
2024/01/16 13:00:36;;;;;;;;;;;10.10;99.90;;;;;;5100167;28;20371;-71
2024/01/16 13:03:02;;;;;;;;;;;8.90;99.90;;;;;;5108400;28;19969;-72
2024/01/16 13:05:27;;;;;;;;;;;7.40;99.90;;;;;;5095694;28;19949;-71
2024/01/16 13:08:01;;;;;;;;;;;6.30;99.90;;;;;;5113841;28;19923;-72
2024/01/16 13:10:26;;;;;;;;;;;5.40;99.90;;;;;;5113249;28;19955;-72
2024/01/16 13:12:52;;;;;;;;;;;5.00;99.90;;;;;;5082254;28;19963;-77
2024/01/16 13:15:17;;;;;;;;;;;4.80;99.90;;;;;;5095181;28;19923;-72
2024/01/16 13:17:43;;;;;;;;;;;4.70;99.90;;;;;;5092699;28;19978;-74
2024/01/16 13:20:10;;;;;;;;;;;4.50;99.90;;;;;;5084273;28;19931;-73
2024/01/16 13:22:35;;;;;;;;;;;4.60;99.90;;;;;;5093256;28;19924;-72
2024/01/16 13:25:01;;;;;;;;;;;5.00;99.90;;;;;;5074365;28;19924;-73
2024/01/16 13:27:29;;;;;;;;;;;5.50;99.90;;;;;;5093185;28;19927;-70
2024/01/16 13:29:54;;;;;;;;;;;5.90;99.90;;;;;;5073871;28;20015;-70
2024/01/16 13:32:20;;;;;;;;;;;5.60;99.90;;;;;;5092143;28;20023;-70
2024/01/16 13:34:49;;;;;;;;;;;5.30;99.90;;;;;;5074858;28;20019;-70
2024/01/16 13:37:21;;;;;;;;;;;5.00;99.90;;;;;;5092115;28;19997;-70
2024/01/16 13:39:47;;;;;;;;;;;4.60;99.90;;;;;;5072826;28;19926;-70
2024/01/16 13:42:13;;;;;;;;;;;4.40;99.90;;;;;;5070133;28;20041;-70
2024/01/16 13:44:38;;;;;;;;;;;4.10;99.90;;;;;;5070455;28;20045;-70
2024/01/16 13:47:04;;;;;;;;;;;4.10;99.90;;;;;;5090180;28;19924;-70
2024/01/16 13:49:30;;;;;;;;;;;4.00;99.90;;;;;;5109509;28;20009;-70
2024/01/16 13:51:55;;;;;;;;;;;3.90;99.90;;;;;;5090683;28;20277;-69
2024/01/16 13:54:21;;;;;;;;;;;3.80;99.90;;;;;;5109865;28;19931;-69
2024/01/16 13:56:46;;;;;;;;;;;3.80;99.90;;;;;;5094604;28;19923;-70
2024/01/16 13:59:12;;;;;;;;;;;3.70;99.90;;;;;;5111771;28;19930;-70
2024/01/16 14:01:38;;;;;;;;;;;3.70;99.90;;;;;;5095133;28;19932;-69
2024/01/16 14:04:05;;;;;;;;;;;3.60;99.90;;;;;;5113792;28;20363;-70
2024/01/16 14:06:30;;;;;;;;;;;3.70;99.90;;;;;;5116842;28;19946;-70
2024/01/16 14:08:56;;;;;;;;;;;3.70;99.90;;;;;;5099428;28;20364;-70
2024/01/16 14:11:21;;;;;;;;;;;3.70;99.90;;;;;;5089661;28;20280;-77
2024/01/16 14:13:48;;;;;;;;;;;4.00;99.90;;;;;;5115010;28;19924;-72
2024/01/16 14:16:13;;;;;;;;;;;3.90;99.90;;;;;;5084041;28;20348;-70
2024/01/16 14:18:39;;;;;;;;;;;3.70;99.90;;;;;;5078414;28;20014;-70
2024/01/16 14:21:04;;;;;;;;;;;3.80;99.90;;;;;;5095163;28;19969;-71
2024/01/16 14:23:30;;;;;;;;;;;3.80;99.90;;;;;;5078147;28;19932;-73